ミラノ/マルペンサ の空港の天気 - METARとTAF

ミラノ・マルペンサ国際空港 ( LIMC / MXP ) - イタリア ミラノ
飛行場実況気象(Metar)
観測時間04/26 18:20 CEST (04/26 16:20 UTC)
風向・風速東 2m/s
視程10km以上
天気現象
なし
気温15℃
湿度48%
気圧1014hPa
METARLIMC 261620Z 08003KT 030V100 CAVOK 15/04 Q1014 NOSIG
過去の天気等 Google飛行場航空写真 Wunderground天気予報

過去48時間のMETAR

飛行場予報(TAF)
発表時間: 4/26 13:00 CEST (4/26 11:00 UTC)
予報対象時間: 26日14時 CEST ~ 27日20時 CEST
風向・風速北北東 4m/s
視程10km以上
全天の4割程度の雲 雲底高度 610m
全天の8割程度の雲 雲底高度 1520m
26日14時 CEST ~ 26日20時 CEST に一時的に
視程4000m
天気現象雷雨
TAF LIMC 261100Z 2612/2718 02007KT 9999 SCT020 BKN050
TEMPO 2612/2618 4000 TSRA